createdAt,value
2022-09-12T00:03:47.500Z,6.50
2022-09-12T00:07:49.685Z,6.25
2022-09-12T00:11:51.753Z,6.53
2022-09-12T00:15:53.729Z,6.43
2022-09-12T00:19:56.069Z,6.45
2022-09-12T00:23:58.381Z,5.70
2022-09-12T00:28:00.373Z,7.43
2022-09-12T00:32:02.516Z,6.85
2022-09-12T00:36:14.746Z,7.80
2022-09-12T00:40:17.081Z,5.55
2022-09-12T00:44:22.321Z,8.55
2022-09-12T00:48:33.875Z,5.65
2022-09-12T00:52:43.968Z,5.78
2022-09-12T00:56:48.540Z,6.03
2022-09-12T01:00:51.403Z,4.85
2022-09-12T01:04:53.564Z,5.95
2022-09-12T01:08:56.740Z,5.75
2022-09-12T01:12:59.311Z,4.43
2022-09-12T01:17:01.713Z,5.05
2022-09-12T01:21:18.959Z,5.43
2022-09-12T01:25:58.132Z,5.45
2022-09-12T01:30:05.888Z,4.95
2022-09-12T01:34:29.113Z,6.90
2022-09-12T01:38:45.326Z,5.00
2022-09-12T01:42:57.857Z,5.82
2022-09-12T01:47:08.485Z,5.03
2022-09-12T01:51:26.205Z,4.47
2022-09-12T01:59:39.432Z,4.45
2022-09-12T02:03:46.841Z,5.30
2022-09-12T02:07:53.741Z,4.40
2022-09-12T02:11:59.147Z,4.68
2022-09-12T02:16:25.740Z,3.90
2022-09-12T02:20:48.101Z,4.07
2022-09-12T02:24:54.028Z,3.85
2022-09-12T02:28:56.883Z,3.88
2022-09-12T02:33:05.652Z,3.92
2022-09-12T02:37:29.549Z,3.75
2022-09-12T02:41:31.887Z,3.65
2022-09-12T02:45:35.809Z,3.70
2022-09-12T02:49:38.012Z,3.60
2022-09-12T02:53:41.914Z,3.10
2022-09-12T02:57:43.896Z,3.85
2022-09-12T03:02:01.223Z,3.35
2022-09-12T03:06:16.165Z,3.38
2022-09-12T03:10:50.078Z,3.10
2022-09-12T03:15:12.135Z,2.75
2022-09-12T03:19:22.235Z,3.65
2022-09-12T03:23:36.831Z,3.72
2022-09-12T03:27:45.050Z,2.88
2022-09-12T03:31:53.774Z,4.57
2022-09-12T03:35:56.393Z,3.58
2022-09-12T03:39:58.435Z,3.83
2022-09-12T03:44:00.558Z,3.47
2022-09-12T03:48:03.914Z,3.50
2022-09-12T03:52:06.026Z,5.07
2022-09-12T03:56:09.954Z,3.08
2022-09-12T04:00:16.406Z,3.47
2022-09-12T04:04:21.163Z,7.90
2022-09-12T04:08:23.187Z,16.67
2022-09-12T04:12:25.192Z,9.07
2022-09-12T04:16:27.195Z,5.80
2022-09-12T04:20:29.269Z,7.25
2022-09-12T04:24:31.761Z,6.57
2022-09-12T04:28:35.661Z,6.43
2022-09-12T04:32:37.852Z,5.97
2022-09-12T04:36:39.900Z,5.93
2022-09-12T04:40:41.966Z,4.45
2022-09-12T04:44:43.964Z,6.70
2022-09-12T04:48:46.978Z,8.40
2022-09-12T04:52:53.401Z,7.38
2022-09-12T04:56:55.462Z,7.73
2022-09-12T05:01:07.537Z,10.20
2022-09-12T05:05:10.253Z,10.98
2022-09-12T05:09:14.012Z,8.73
2022-09-12T05:13:16.009Z,10.57
2022-09-12T05:17:18.006Z,17.23
2022-09-12T05:21:23.121Z,36.58
2022-09-12T05:25:25.834Z,17.42
2022-09-12T05:29:27.920Z,9.63
2022-09-12T05:33:30.862Z,16.35
2022-09-12T05:37:33.005Z,12.20
2022-09-12T05:41:36.171Z,10.48
2022-09-12T05:45:42.078Z,11.13
2022-09-12T05:49:45.201Z,9.27
2022-09-12T05:53:49.741Z,10.57
2022-09-12T05:57:51.916Z,9.25
2022-09-12T06:01:53.984Z,10.23
2022-09-12T06:05:55.989Z,8.82
2022-09-12T06:09:59.247Z,9.88
2022-09-12T06:14:01.905Z,10.73
2022-09-12T06:18:04.044Z,9.07
2022-09-12T06:22:06.037Z,6.78
2022-09-12T06:26:09.909Z,7.45
2022-09-12T06:30:12.553Z,10.32
2022-09-12T06:34:16.006Z,7.05
2022-09-12T06:38:18.418Z,7.07
2022-09-12T06:42:20.375Z,8.88
2022-09-12T06:46:31.491Z,8.73
2022-09-12T06:50:33.598Z,7.55
2022-09-12T06:54:35.600Z,8.13
2022-09-12T06:58:38.031Z,7.85
2022-09-12T07:02:40.499Z,9.40
2022-09-12T07:06:44.487Z,8.43
2022-09-12T07:10:47.083Z,11.65
2022-09-12T07:14:49.347Z,9.45
2022-09-12T07:18:52.752Z,9.10
2022-09-12T07:22:54.731Z,9.07
2022-09-12T07:26:56.746Z,12.07
2022-09-12T07:31:04.567Z,9.48
2022-09-12T07:35:07.014Z,8.52
2022-09-12T07:39:09.624Z,14.98
2022-09-12T07:43:11.812Z,10.30
2022-09-12T07:47:13.790Z,9.95
2022-09-12T07:51:15.766Z,9.77
2022-09-12T07:55:17.719Z,8.65
2022-09-12T07:59:41.583Z,7.90
2022-09-12T08:03:43.451Z,8.60
2022-09-12T08:07:45.436Z,8.38
2022-09-12T08:11:47.442Z,8.27
2022-09-12T08:15:49.530Z,6.70
2022-09-12T08:19:52.546Z,7.82
2022-09-12T08:24:03.763Z,7.22
2022-09-12T08:28:06.107Z,5.95
2022-09-12T08:32:08.360Z,7.13
2022-09-12T08:36:22.620Z,6.32
2022-09-12T08:40:24.627Z,6.28
2022-09-12T08:44:44.374Z,8.20
2022-09-12T08:48:46.804Z,7.28
2022-09-12T08:52:54.876Z,7.20
2022-09-12T08:57:03.283Z,6.57
2022-09-12T09:01:07.055Z,6.45
2022-09-12T09:05:29.648Z,8.43
2022-09-12T09:09:56.427Z,8.43
2022-09-12T09:14:22.181Z,7.13
2022-09-12T09:18:32.167Z,5.13
2022-09-12T09:22:36.902Z,5.85
2022-09-12T09:26:41.848Z,5.22
2022-09-12T09:30:44.911Z,6.20
2022-09-12T09:34:47.939Z,5.53
2022-09-12T09:39:11.587Z,6.68
2022-09-12T09:43:22.962Z,6.03
2022-09-12T09:47:25.149Z,6.43
2022-09-12T09:51:32.804Z,6.78
2022-09-12T09:55:41.065Z,9.13
2022-09-12T09:59:43.068Z,6.82
2022-09-12T10:03:53.199Z,7.18
2022-09-12T10:07:55.473Z,6.90
2022-09-12T10:11:57.457Z,8.02
2022-09-12T10:16:22.095Z,9.13
2022-09-12T10:20:39.007Z,8.85
2022-09-12T10:24:43.510Z,6.80
2022-09-12T10:28:54.728Z,6.40
2022-09-12T10:33:11.543Z,6.75
2022-09-12T10:37:28.763Z,6.28
2022-09-12T10:41:39.201Z,7.63
2022-09-12T10:45:41.268Z,5.20
2022-09-12T10:49:43.288Z,7.07
2022-09-12T10:53:46.804Z,7.85
2022-09-12T10:58:03.944Z,5.03
2022-09-12T11:02:26.457Z,5.90
2022-09-12T11:06:43.488Z,5.00
2022-09-12T11:10:54.411Z,5.63
2022-09-12T11:15:02.983Z,5.57
2022-09-12T11:19:41.210Z,5.03
2022-09-12T11:24:09.482Z,5.35
2022-09-12T11:28:47.500Z,6.20
2022-09-12T11:37:02.130Z,3.90
2022-09-12T11:41:11.478Z,4.82
2022-09-12T11:45:25.005Z,5.10
2022-09-12T11:49:51.793Z,6.45
2022-09-12T11:54:03.432Z,4.87
2022-09-12T11:58:09.554Z,4.40
2022-09-12T12:02:17.314Z,5.00
2022-09-12T12:06:31.261Z,4.68
2022-09-12T12:10:38.521Z,3.75
2022-09-12T12:14:47.565Z,3.93
2022-09-12T12:18:58.632Z,6.03
2022-09-12T12:23:01.043Z,5.05
2022-09-12T12:27:05.637Z,3.35
2022-09-12T12:31:09.370Z,3.90
2022-09-12T12:35:41.691Z,4.50
2022-09-12T12:39:43.952Z,4.60
2022-09-12T12:43:50.757Z,5.28
2022-09-12T12:48:00.229Z,5.13
2022-09-12T12:52:02.519Z,4.13
2022-09-12T12:56:05.147Z,4.60
2022-09-12T13:00:29.920Z,3.10
2022-09-12T13:04:32.870Z,3.63
2022-09-12T13:08:38.974Z,3.25
2022-09-12T13:12:47.607Z,4.83
2022-09-12T13:16:59.956Z,5.22
2022-09-12T13:21:12.509Z,4.85
2022-09-12T13:25:36.021Z,4.72
2022-09-12T13:29:38.489Z,5.55
2022-09-12T13:33:46.756Z,4.72
2022-09-12T13:37:59.525Z,3.38
2022-09-12T13:42:30.968Z,3.75
2022-09-12T13:46:34.396Z,3.85
2022-09-12T13:50:46.138Z,5.07
2022-09-12T13:54:51.972Z,4.00
2022-09-12T13:59:02.513Z,5.20
2022-09-12T14:03:43.946Z,3.58
2022-09-12T14:07:55.043Z,7.22
2022-09-12T14:11:58.153Z,5.63
2022-09-12T14:16:00.365Z,4.07
2022-09-12T14:20:07.139Z,5.07
2022-09-12T14:24:12.425Z,3.63
2022-09-12T14:28:23.630Z,4.78
2022-09-12T14:32:26.305Z,3.60
2022-09-12T14:36:35.721Z,4.75
2022-09-12T14:40:48.461Z,6.47
2022-09-12T14:44:58.751Z,5.40
2022-09-12T14:49:31.343Z,3.47
2022-09-12T14:53:34.802Z,3.47
2022-09-12T14:57:40.849Z,3.50
2022-09-12T15:01:42.963Z,3.33
2022-09-12T15:05:49.844Z,2.95
2022-09-12T15:09:52.316Z,3.13
2022-09-12T15:13:54.594Z,2.80
2022-09-12T15:17:56.583Z,2.90
2022-09-12T15:21:58.609Z,3.20
2022-09-12T15:26:01.350Z,4.13
2022-09-12T15:30:03.613Z,3.33
2022-09-12T15:34:05.762Z,3.10
2022-09-12T15:38:07.753Z,2.92
2022-09-12T15:42:11.311Z,3.95
2022-09-12T15:46:15.002Z,2.83
2022-09-12T15:50:17.165Z,3.13
2022-09-12T15:54:20.774Z,2.75
2022-09-12T15:58:22.949Z,3.28
2022-09-12T16:02:24.989Z,2.72
2022-09-12T16:06:33.557Z,2.63
2022-09-12T16:10:38.837Z,3.10
2022-09-12T16:14:40.815Z,2.65
2022-09-12T16:18:42.914Z,3.17
2022-09-12T16:22:45.085Z,3.03
2022-09-12T16:26:47.083Z,3.05
2022-09-12T16:30:57.133Z,3.90
2022-09-12T16:34:59.299Z,3.08
2022-09-12T16:39:01.525Z,3.63
2022-09-12T16:43:03.512Z,5.03
2022-09-12T16:47:05.631Z,2.88
2022-09-12T16:51:07.712Z,3.85
2022-09-12T16:55:09.987Z,3.22
2022-09-12T16:59:16.137Z,3.03
2022-09-12T17:03:18.133Z,3.45
2022-09-12T17:07:20.128Z,3.63
2022-09-12T17:11:25.135Z,5.38
2022-09-12T17:15:27.247Z,3.10
2022-09-12T17:19:32.304Z,3.72
2022-09-12T17:23:34.795Z,3.05
2022-09-12T17:27:37.176Z,3.05
2022-09-12T17:31:40.465Z,3.38
2022-09-12T17:35:42.574Z,2.85
2022-09-12T17:39:44.606Z,3.50
2022-09-12T17:43:52.725Z,3.63
2022-09-12T17:47:54.761Z,4.38
2022-09-12T17:51:57.811Z,4.35
2022-09-12T17:56:03.021Z,3.33
2022-09-12T18:00:05.684Z,3.97
2022-09-12T18:04:13.896Z,3.45
2022-09-12T18:08:15.872Z,4.82
2022-09-12T18:12:19.077Z,3.95
2022-09-12T18:16:21.198Z,4.28
2022-09-12T18:20:23.186Z,3.67
2022-09-12T18:24:26.418Z,4.43
2022-09-12T18:28:28.418Z,5.20
2022-09-12T18:32:30.409Z,5.22
2022-09-12T18:36:32.578Z,3.70
2022-09-12T18:40:34.578Z,3.75
2022-09-12T18:44:36.555Z,3.90
2022-09-12T18:48:38.750Z,5.15
2022-09-12T18:52:40.741Z,4.38
2022-09-12T18:56:43.813Z,4.57
2022-09-12T19:00:48.250Z,4.18
2022-09-12T19:04:50.357Z,5.07
2022-09-12T19:08:53.886Z,3.40
2022-09-12T19:12:55.899Z,4.22
2022-09-12T19:16:57.896Z,4.15
2022-09-12T19:21:01.384Z,4.60
2022-09-12T19:25:03.598Z,4.57
2022-09-12T19:29:06.922Z,3.45
2022-09-12T19:33:08.917Z,4.20
2022-09-12T19:37:10.959Z,4.65
2022-09-12T19:41:15.318Z,3.92
2022-09-12T19:45:17.446Z,5.25
2022-09-12T19:49:19.435Z,4.30
2022-09-12T19:53:21.434Z,4.38
2022-09-12T19:57:23.428Z,4.40
2022-09-12T20:01:30.375Z,4.68
2022-09-12T20:05:33.323Z,4.60
2022-09-12T20:09:35.932Z,3.97
2022-09-12T20:13:38.169Z,4.35
2022-09-12T20:17:40.641Z,4.03
2022-09-12T20:21:42.936Z,4.13
2022-09-12T20:25:44.974Z,6.13
2022-09-12T20:29:47.029Z,5.72
2022-09-12T20:33:51.776Z,4.43
2022-09-12T20:37:54.168Z,4.38
2022-09-12T20:41:56.154Z,4.88
2022-09-12T20:45:58.240Z,5.85
2022-09-12T20:50:00.252Z,4.32
2022-09-12T20:54:04.759Z,4.30
2022-09-12T20:58:06.749Z,6.88
2022-09-12T21:02:15.955Z,5.82
2022-09-12T21:06:19.327Z,4.53
2022-09-12T21:10:21.341Z,5.85
2022-09-12T21:14:23.885Z,4.93
2022-09-12T21:18:25.949Z,5.07
2022-09-12T21:22:27.962Z,5.93
2022-09-12T21:26:30.648Z,6.18
2022-09-12T21:30:32.753Z,5.05
2022-09-12T21:34:34.765Z,5.05
2022-09-12T21:38:36.921Z,5.55
2022-09-12T21:42:38.913Z,5.93
2022-09-12T21:46:40.937Z,6.22
2022-09-12T21:50:43.119Z,4.70
2022-09-12T21:54:45.103Z,7.05
2022-09-12T21:58:47.368Z,5.18
2022-09-12T22:02:49.666Z,5.75
2022-09-12T22:06:51.681Z,6.53
2022-09-12T22:10:58.396Z,4.80
2022-09-12T22:15:08.915Z,5.80
2022-09-12T22:19:19.790Z,4.30
2022-09-12T22:23:40.512Z,4.50
2022-09-12T22:27:42.500Z,4.55
2022-09-12T22:31:44.538Z,5.05
2022-09-12T22:35:46.567Z,4.68
2022-09-12T22:39:48.667Z,4.30
2022-09-12T22:43:51.032Z,5.00
2022-09-12T22:47:53.136Z,6.22
2022-09-12T22:51:55.121Z,6.47
2022-09-12T22:55:57.210Z,4.85
2022-09-12T22:59:59.201Z,5.75
2022-09-12T23:04:03.348Z,4.82
2022-09-12T23:08:05.480Z,5.35
2022-09-12T23:12:07.512Z,5.10
2022-09-12T23:16:14.769Z,4.78
2022-09-12T23:24:18.956Z,4.97
2022-09-12T23:28:21.412Z,4.78
2022-09-12T23:32:23.829Z,5.03
2022-09-12T23:36:27.117Z,5.70
2022-09-12T23:40:29.258Z,4.88
2022-09-12T23:44:31.254Z,5.55
2022-09-12T23:48:34.220Z,6.53
2022-09-12T23:52:36.295Z,5.30
2022-09-12T23:56:38.355Z,5.55
